createdAt,value
2022-12-22T00:00:14.097Z,1.74
2022-12-22T00:03:29.242Z,1.74
2022-12-22T00:06:31.286Z,1.80
2022-12-22T00:09:46.127Z,1.76
2022-12-22T00:12:55.174Z,1.86
2022-12-22T00:16:04.162Z,1.84
2022-12-22T00:19:20.174Z,1.85
2022-12-22T00:22:28.816Z,1.84
2022-12-22T00:25:37.156Z,1.85
2022-12-22T00:28:52.165Z,1.86
2022-12-22T00:32:02.751Z,1.85
2022-12-22T00:35:21.138Z,1.88
2022-12-22T00:38:29.973Z,1.90
2022-12-22T00:41:45.163Z,1.86
2022-12-22T00:44:53.861Z,1.82
2022-12-22T00:48:02.141Z,1.80
2022-12-22T00:51:19.271Z,1.76
2022-12-22T00:54:23.097Z,1.78
2022-12-22T00:57:40.164Z,1.81
2022-12-22T01:00:49.244Z,1.82
2022-12-22T01:03:58.121Z,1.81
2022-12-22T01:07:14.136Z,1.80
2022-12-22T01:10:16.692Z,1.81
2022-12-22T01:13:34.141Z,1.82
2022-12-22T01:16:42.880Z,1.82
2022-12-22T01:19:52.127Z,1.89
2022-12-22T01:23:17.118Z,1.88
2022-12-22T01:26:32.169Z,1.90
2022-12-22T01:29:41.132Z,1.99
2022-12-22T01:32:49.856Z,2.02
2022-12-22T01:35:58.151Z,2.04
2022-12-22T01:39:08.023Z,2.04
2022-12-22T01:42:20.138Z,2.08
2022-12-22T01:45:38.151Z,2.07
2022-12-22T01:48:53.111Z,2.08
2022-12-22T01:51:55.798Z,2.02
2022-12-22T01:55:18.177Z,2.02
2022-12-22T01:58:49.166Z,1.97
2022-12-22T02:02:06.293Z,2.04
2022-12-22T02:05:25.157Z,1.98
2022-12-22T02:08:40.164Z,2.12
2022-12-22T02:12:15.131Z,2.13
2022-12-22T02:15:48.707Z,2.11
2022-12-22T02:19:14.145Z,2.17
2022-12-22T02:22:40.170Z,2.15
2022-12-22T02:25:59.387Z,2.18
2022-12-22T02:29:15.166Z,2.18
2022-12-22T02:32:33.137Z,2.21
2022-12-22T02:36:06.146Z,2.22
2022-12-22T02:39:26.870Z,2.24
2022-12-22T02:43:12.213Z,2.22
2022-12-22T02:46:38.141Z,2.23
2022-12-22T02:49:57.151Z,2.22
2022-12-22T02:53:15.143Z,2.23
2022-12-22T02:56:24.790Z,2.24
2022-12-22T02:59:33.139Z,2.22
2022-12-22T03:02:42.320Z,2.20
2022-12-22T03:05:51.123Z,2.22
2022-12-22T03:08:59.857Z,2.23
2022-12-22T03:12:15.164Z,2.25
2022-12-22T03:15:24.150Z,2.23
2022-12-22T03:18:32.898Z,2.24
2022-12-22T03:21:41.132Z,2.29
2022-12-22T03:24:56.142Z,2.31
2022-12-22T03:28:17.659Z,2.33
2022-12-22T03:31:35.511Z,2.33
2022-12-22T03:34:50.151Z,2.33
2022-12-22T03:37:59.124Z,2.36
2022-12-22T03:41:07.974Z,2.36
2022-12-22T03:44:16.143Z,2.37
2022-12-22T03:47:31.129Z,2.35
2022-12-22T03:50:41.141Z,2.37
2022-12-22T03:53:56.135Z,2.35
2022-12-22T03:56:58.118Z,2.34
2022-12-22T04:00:14.136Z,2.30
2022-12-22T04:03:16.280Z,2.28
2022-12-22T04:06:31.128Z,2.25
2022-12-22T04:09:33.199Z,2.24
2022-12-22T04:12:48.105Z,2.19
2022-12-22T04:15:50.239Z,2.17
2022-12-22T04:19:05.125Z,2.10
2022-12-22T04:22:07.109Z,2.15
2022-12-22T04:25:23.125Z,2.14
2022-12-22T04:28:32.197Z,2.13
2022-12-22T04:31:54.205Z,2.13
2022-12-22T04:35:10.149Z,2.13
2022-12-22T04:38:19.286Z,2.15
2022-12-22T04:44:23.765Z,2.22
2022-12-22T04:47:39.785Z,2.12
2022-12-22T04:50:57.321Z,2.07
2022-12-22T04:54:05.831Z,2.02
2022-12-22T04:57:14.512Z,1.97
2022-12-22T05:00:24.794Z,1.95
2022-12-22T05:03:39.848Z,1.91
2022-12-22T05:06:48.450Z,1.92
2022-12-22T05:09:56.774Z,1.86
2022-12-22T05:13:05.551Z,1.89
2022-12-22T05:16:19.799Z,1.92
2022-12-22T05:19:30.885Z,1.94
2022-12-22T05:22:39.808Z,1.95
2022-12-22T05:25:48.453Z,1.97
2022-12-22T05:29:03.762Z,1.97
2022-12-22T05:32:18.792Z,1.93
2022-12-22T05:35:20.856Z,1.86
2022-12-22T05:38:35.787Z,1.89
2022-12-22T05:41:37.985Z,1.90
2022-12-22T05:44:59.781Z,1.87
2022-12-22T05:48:08.751Z,1.85
2022-12-22T05:51:23.753Z,1.85
2022-12-22T05:54:32.508Z,1.83
2022-12-22T05:57:48.759Z,1.81
2022-12-22T06:01:05.761Z,1.83
2022-12-22T06:04:14.665Z,1.82
2022-12-22T06:07:23.795Z,1.78
2022-12-22T06:10:32.806Z,1.78
2022-12-22T06:13:41.781Z,1.68
2022-12-22T06:16:50.551Z,1.75
2022-12-22T06:20:05.809Z,1.75
2022-12-22T06:23:14.508Z,1.74
2022-12-22T06:26:29.759Z,1.77
2022-12-22T06:29:32.223Z,1.76
2022-12-22T06:32:47.760Z,1.74
2022-12-22T06:36:02.763Z,1.72
2022-12-22T06:39:12.745Z,1.73
2022-12-22T06:42:28.758Z,1.74
2022-12-22T06:45:42.599Z,1.74
2022-12-22T06:48:57.741Z,1.70
2022-12-22T06:52:08.363Z,1.75
2022-12-22T06:55:16.753Z,1.75
2022-12-22T06:58:31.746Z,1.75
2022-12-22T07:01:40.614Z,1.78
2022-12-22T07:04:49.777Z,1.77
2022-12-22T07:08:04.012Z,1.82
2022-12-22T07:11:23.802Z,1.87
2022-12-22T07:14:32.762Z,1.89
2022-12-22T07:17:41.427Z,1.95
2022-12-22T07:20:49.767Z,2.01
2022-12-22T07:24:04.815Z,2.01
2022-12-22T07:27:19.751Z,2.01
2022-12-22T07:30:21.767Z,2.08
2022-12-22T07:33:37.747Z,2.17
2022-12-22T07:36:39.770Z,2.23
2022-12-22T07:39:54.761Z,2.26
2022-12-22T07:42:58.076Z,2.30
2022-12-22T07:46:13.749Z,2.34
2022-12-22T07:49:22.777Z,2.35
2022-12-22T07:52:31.655Z,2.33
2022-12-22T07:55:46.779Z,2.30
2022-12-22T07:58:49.026Z,2.34
2022-12-22T08:02:03.900Z,2.36
2022-12-22T08:05:18.743Z,2.32
2022-12-22T08:08:33.755Z,2.32
2022-12-22T08:11:42.742Z,2.37
2022-12-22T08:14:51.391Z,2.33
2022-12-22T08:17:59.760Z,2.25
2022-12-22T08:21:09.007Z,2.26
2022-12-22T08:24:17.816Z,2.32
2022-12-22T08:27:39.764Z,2.32
2022-12-22T08:30:54.627Z,2.35
2022-12-22T08:34:12.759Z,2.43
2022-12-22T08:37:31.763Z,2.50
2022-12-22T08:40:43.634Z,2.52
2022-12-22T08:44:05.750Z,2.48
2022-12-22T08:47:17.212Z,2.48
2022-12-22T08:50:34.729Z,2.60
2022-12-22T08:54:04.597Z,2.60
2022-12-22T08:57:18.731Z,2.65
2022-12-22T09:00:28.281Z,2.72
2022-12-22T09:03:42.748Z,2.67
2022-12-22T09:06:45.485Z,2.65
2022-12-22T09:10:00.726Z,2.63
2022-12-22T09:13:09.821Z,2.59
2022-12-22T09:16:18.776Z,2.58
2022-12-22T09:19:27.798Z,2.70
2022-12-22T09:22:36.740Z,2.69
2022-12-22T09:25:51.731Z,2.72
2022-12-22T09:29:00.435Z,2.83
2022-12-22T09:32:15.833Z,2.90
2022-12-22T09:35:24.716Z,2.94
2022-12-22T09:38:39.764Z,2.95
2022-12-22T09:41:53.650Z,2.88
2022-12-22T09:45:21.777Z,2.91
2022-12-22T09:48:36.978Z,2.80
2022-12-22T09:51:48.727Z,2.88
2022-12-22T09:55:03.740Z,2.81
2022-12-22T09:58:20.679Z,2.96
2022-12-22T10:01:41.810Z,3.07
2022-12-22T10:05:14.823Z,2.97
2022-12-22T10:08:36.708Z,3.01
2022-12-22T10:11:38.666Z,3.07
2022-12-22T10:14:56.756Z,3.07
2022-12-22T10:18:11.182Z,3.07
2022-12-22T10:21:29.743Z,3.13
2022-12-22T10:24:38.383Z,3.11
2022-12-22T10:27:53.716Z,3.06
2022-12-22T10:31:22.748Z,3.03
2022-12-22T10:34:31.726Z,3.19
2022-12-22T10:37:47.746Z,3.19
2022-12-22T10:41:07.721Z,3.06
2022-12-22T10:44:22.726Z,3.28
2022-12-22T10:47:31.049Z,3.33
2022-12-22T10:50:56.733Z,3.27
2022-12-22T10:54:05.738Z,3.33
2022-12-22T10:57:14.465Z,3.38
2022-12-22T11:00:32.719Z,3.44
2022-12-22T11:03:47.816Z,3.44
2022-12-22T11:06:58.776Z,3.30
2022-12-22T11:10:07.721Z,3.41
2022-12-22T11:13:25.357Z,3.43
2022-12-22T11:16:52.844Z,3.55
2022-12-22T11:20:42.772Z,3.63
2022-12-22T11:23:51.425Z,3.67
2022-12-22T11:27:31.703Z,3.66
2022-12-22T11:31:16.794Z,3.60
2022-12-22T11:35:08.815Z,3.52
2022-12-22T11:38:48.735Z,3.72
2022-12-22T11:42:14.774Z,3.82
2022-12-22T11:45:51.556Z,3.73
2022-12-22T11:49:44.746Z,3.74
2022-12-22T11:53:05.030Z,3.79
2022-12-22T11:56:22.768Z,3.86
2022-12-22T11:59:49.711Z,3.84
2022-12-22T12:03:42.769Z,3.94
2022-12-22T12:07:35.696Z,3.88
2022-12-22T12:10:51.932Z,3.83
2022-12-22T12:14:05.730Z,3.78
2022-12-22T12:17:20.018Z,3.68
2022-12-22T12:20:45.753Z,3.73
2022-12-22T12:24:06.160Z,3.71
2022-12-22T12:27:38.702Z,3.69
2022-12-22T12:31:07.749Z,3.79
2022-12-22T12:34:25.697Z,3.78
2022-12-22T12:37:44.695Z,3.81
2022-12-22T12:41:10.571Z,3.84
2022-12-22T12:44:31.736Z,3.87
2022-12-22T12:47:46.682Z,3.95
2022-12-22T12:50:50.669Z,3.99
2022-12-22T12:54:36.719Z,3.85
2022-12-22T12:57:47.538Z,3.93
2022-12-22T13:00:59.006Z,3.88
2022-12-22T13:04:15.799Z,3.86
2022-12-22T13:07:56.283Z,3.88
2022-12-22T13:11:37.884Z,3.96
2022-12-22T13:14:59.717Z,3.96
2022-12-22T13:18:11.771Z,4.00
2022-12-22T13:21:52.214Z,3.96
2022-12-22T13:25:03.292Z,3.98
2022-12-22T13:28:22.687Z,3.94
2022-12-22T13:31:42.163Z,3.98
2022-12-22T13:35:32.025Z,3.96
2022-12-22T13:38:43.710Z,3.95
2022-12-22T13:41:52.707Z,3.92
2022-12-22T13:45:08.677Z,3.80
2022-12-22T13:48:50.734Z,3.81
2022-12-22T13:52:05.025Z,3.90
2022-12-22T13:55:24.753Z,3.84
2022-12-22T13:58:40.423Z,3.76
2022-12-22T14:01:57.864Z,3.70
2022-12-22T14:05:14.743Z,3.70
2022-12-22T14:08:30.712Z,3.73
2022-12-22T14:11:45.576Z,3.65
2022-12-22T14:15:06.686Z,3.59
2022-12-22T14:18:25.711Z,3.49
2022-12-22T14:21:40.691Z,3.40
2022-12-22T14:24:49.105Z,3.51
2022-12-22T14:28:04.751Z,3.47
2022-12-22T14:31:14.028Z,3.49
2022-12-22T14:34:39.720Z,3.52
2022-12-22T14:37:50.711Z,3.50
2022-12-22T14:41:00.740Z,3.45
2022-12-22T14:44:38.666Z,3.48
2022-12-22T14:47:53.716Z,3.45
2022-12-22T14:51:03.207Z,3.47
2022-12-22T14:54:11.704Z,3.42
2022-12-22T14:57:42.463Z,3.46
2022-12-22T15:01:34.826Z,3.47
2022-12-22T15:04:49.767Z,3.44
2022-12-22T15:08:08.986Z,3.41
2022-12-22T15:11:22.703Z,3.32
2022-12-22T15:14:40.730Z,3.23
2022-12-22T15:17:58.703Z,3.27
2022-12-22T15:21:13.083Z,3.22
2022-12-22T15:24:23.714Z,3.25
2022-12-22T15:27:38.755Z,3.28
2022-12-22T15:30:47.662Z,3.22
2022-12-22T15:33:56.698Z,3.25
2022-12-22T15:37:05.518Z,3.20
2022-12-22T15:40:26.817Z,3.17
2022-12-22T15:43:58.758Z,3.11
2022-12-22T15:47:14.021Z,3.12
2022-12-22T15:50:41.712Z,3.07
2022-12-22T15:53:51.479Z,3.03
2022-12-22T15:57:07.807Z,2.98
2022-12-22T16:00:22.903Z,2.91
2022-12-22T16:03:31.752Z,2.95
2022-12-22T16:06:46.725Z,2.90
2022-12-22T16:09:55.416Z,2.85
2022-12-22T16:13:06.686Z,2.83
2022-12-22T16:16:21.809Z,2.82
2022-12-22T16:19:30.507Z,2.77
2022-12-22T16:22:46.724Z,2.80
2022-12-22T16:25:49.285Z,2.83
2022-12-22T16:29:03.672Z,2.88
2022-12-22T16:32:30.220Z,2.88
2022-12-22T16:35:45.747Z,2.92
2022-12-22T16:39:00.699Z,2.91
2022-12-22T16:45:51.734Z,2.90
2022-12-22T16:49:07.709Z,2.96
2022-12-22T16:52:29.661Z,2.95
2022-12-22T16:55:44.693Z,2.98
2022-12-22T16:58:53.375Z,2.96
2022-12-22T17:02:09.844Z,2.91
2022-12-22T17:05:43.981Z,2.93
2022-12-22T17:08:59.702Z,2.84
2022-12-22T17:12:25.870Z,2.88
2022-12-22T17:15:28.346Z,2.91
2022-12-22T17:18:43.682Z,2.88
2022-12-22T17:21:47.254Z,2.89
2022-12-22T17:25:05.699Z,2.88
2022-12-22T17:28:14.421Z,2.91
2022-12-22T17:31:25.721Z,2.93
2022-12-22T17:34:40.804Z,2.91
2022-12-22T17:37:47.980Z,2.98
2022-12-22T17:41:02.699Z,2.95
2022-12-22T17:44:27.885Z,2.97
2022-12-22T17:47:43.168Z,2.97
2022-12-22T17:50:51.488Z,2.86
2022-12-22T17:54:01.714Z,2.98
2022-12-22T17:57:17.808Z,2.95
2022-12-22T18:00:36.687Z,2.99
2022-12-22T18:03:45.733Z,3.00
2022-12-22T18:07:00.701Z,3.03
2022-12-22T18:10:28.753Z,3.03
2022-12-22T18:13:30.904Z,3.03
2022-12-22T18:16:45.768Z,3.06
2022-12-22T18:19:54.801Z,3.03
2022-12-22T18:23:09.792Z,3.01
2022-12-22T18:26:31.812Z,3.01
2022-12-22T18:29:46.662Z,2.97
2022-12-22T18:32:56.681Z,2.98
2022-12-22T18:36:11.660Z,2.99
2022-12-22T18:39:30.683Z,2.98
2022-12-22T18:42:39.345Z,2.98
2022-12-22T18:45:54.682Z,3.03
2022-12-22T18:49:09.709Z,3.05
2022-12-22T18:52:19.602Z,3.07
2022-12-22T18:55:37.681Z,3.08
2022-12-22T18:58:40.870Z,3.09
2022-12-22T19:01:56.764Z,3.06
2022-12-22T19:04:59.304Z,3.06
2022-12-22T19:08:20.665Z,3.08
2022-12-22T19:11:31.599Z,3.11
2022-12-22T19:14:40.704Z,3.10
2022-12-22T19:17:51.311Z,3.14
2022-12-22T19:21:08.986Z,3.16
2022-12-22T19:24:18.026Z,3.17
2022-12-22T19:27:28.204Z,3.13
2022-12-22T19:30:44.745Z,3.11
2022-12-22T19:33:47.483Z,3.04
2022-12-22T19:37:02.640Z,3.12
2022-12-22T19:40:06.069Z,3.10
2022-12-22T19:43:24.647Z,3.13
2022-12-22T19:46:40.699Z,3.15
2022-12-22T19:49:55.659Z,3.14
2022-12-22T19:52:59.739Z,3.16
2022-12-22T19:56:29.674Z,3.09
2022-12-22T19:59:48.736Z,3.10
2022-12-22T20:02:53.675Z,3.10
2022-12-22T20:06:09.644Z,3.08
2022-12-22T20:09:18.654Z,3.07
2022-12-22T20:12:39.669Z,3.04
2022-12-22T20:15:49.716Z,3.05
2022-12-22T20:19:04.970Z,3.05
2022-12-22T20:22:18.332Z,3.02
2022-12-22T20:25:35.774Z,3.01
2022-12-22T20:28:51.660Z,3.06
2022-12-22T20:31:54.134Z,3.09
2022-12-22T20:35:10.642Z,3.10
2022-12-22T20:38:46.668Z,3.14
2022-12-22T20:41:55.649Z,3.16
2022-12-22T20:45:12.090Z,3.11
2022-12-22T20:48:41.841Z,3.10
2022-12-22T20:51:51.350Z,3.10
2022-12-22T20:55:07.660Z,3.14
2022-12-22T20:58:36.371Z,3.17
2022-12-22T21:01:53.845Z,3.21
2022-12-22T21:05:02.641Z,3.26
2022-12-22T21:08:23.385Z,3.28
2022-12-22T21:11:38.795Z,3.31
2022-12-22T21:14:47.645Z,3.34
2022-12-22T21:17:58.803Z,3.36
2022-12-22T21:21:07.629Z,3.40
2022-12-22T21:24:22.639Z,3.44
2022-12-22T21:27:37.661Z,3.45
2022-12-22T21:30:40.886Z,3.45
2022-12-22T21:33:55.694Z,3.50
2022-12-22T21:37:01.528Z,3.51
2022-12-22T21:40:28.687Z,3.51
2022-12-22T21:43:30.735Z,3.53
2022-12-22T21:46:53.797Z,3.54
2022-12-22T21:49:56.001Z,3.56
2022-12-22T21:53:33.079Z,3.53
2022-12-22T21:56:47.673Z,3.56
2022-12-22T21:59:56.633Z,3.58
2022-12-22T22:03:12.727Z,3.63
2022-12-22T22:06:21.428Z,3.63
2022-12-22T22:09:29.643Z,3.65
2022-12-22T22:12:38.528Z,3.66
2022-12-22T22:15:47.688Z,3.66
2022-12-22T22:18:56.309Z,3.70
2022-12-22T22:22:11.662Z,3.69
2022-12-22T22:25:28.642Z,3.70
2022-12-22T22:28:31.130Z,3.72
2022-12-22T22:31:46.705Z,3.74
2022-12-22T22:35:02.669Z,3.69
2022-12-22T22:38:11.679Z,3.78
2022-12-22T22:41:20.380Z,3.77
2022-12-22T22:44:28.619Z,3.81
2022-12-22T22:47:43.949Z,3.83
2022-12-22T22:50:53.642Z,3.84
2022-12-22T22:54:08.638Z,3.86
2022-12-22T22:57:23.659Z,3.86
2022-12-22T23:00:27.178Z,3.94
2022-12-22T23:03:43.683Z,3.93
2022-12-22T23:06:52.483Z,3.98
2022-12-22T23:10:01.643Z,4.02
2022-12-22T23:13:16.663Z,4.01
2022-12-22T23:16:18.735Z,4.02
2022-12-22T23:19:33.633Z,4.05
2022-12-22T23:22:42.695Z,4.06
2022-12-22T23:25:51.462Z,4.07
2022-12-22T23:29:06.623Z,4.10
2022-12-22T23:32:21.640Z,4.12
2022-12-22T23:35:30.421Z,4.12
2022-12-22T23:38:45.593Z,4.15
2022-12-22T23:42:01.657Z,4.16
2022-12-22T23:45:04.251Z,4.14
2022-12-22T23:48:25.644Z,4.13
2022-12-22T23:51:34.663Z,4.13
2022-12-22T23:54:43.622Z,4.15
2022-12-22T23:57:53.489Z,4.20
